Pacific Fantasy — A8MV6 — position and weather

sailwx.info

Track history (hours):
 
Tides and Currents Weather Stations Pressure Air Temp Water Temp Dewpoint Dewpoint Depression Visibility Wind Speed Wind Dir Waves Ship Positions

Pacific Fantasy

Last reported at 2015-Jan-22 12:33 UTC. Time now 2015-Jan-26 22:33 UTC.
Position N 25°54' W 079°21'.

Length 180 m; draft 6.5 m.

Type: Cargo ship. MMSI: 636013744.

Date/timePositionNaut miles runAvg speedWind from/ knotsBaromVisibWave heightAir tempDewpointWater temp
2015-Jan-22 12:33N 25°54' W 079°21'  
2015-Jan-19 18:11N 29°55' W 090°05'15 9.1
2015-Jan-19 16:30N 29°56' W 090°22'1210.5
2015-Jan-19 15:22N 30°03' W 090°34'1011.7
2015-Jan-19 14:30N 30°01' W 090°45'8 8.6
2015-Jan-19 13:33N 30°04' W 090°54'4 3.8
2015-Jan-19 12:25N 30°07' W 090°57'0 0.0
2015-Jan-19 11:04N 30°07' W 090°57'0 0.0
2015-Jan-19 08:13N 30°07' W 090°57'0 0.0
2015-Jan-19 07:04N 30°07' W 090°57'0 0.0
2015-Jan-19 02:27N 30°07' W 090°57'0 0.0
2015-Jan-17 15:31N 30°07' W 090°57'0 0.0
2015-Jan-17 14:31N 30°07' W 090°57'0 0.0
2015-Jan-17 13:31N 30°07' W 090°57'0 0.0
2015-Jan-17 12:16N 30°07' W 090°57'0 0.0
2015-Jan-17 11:25N 30°07' W 090°57'0 0.1
2015-Jan-17 10:33N 30°08' W 090°57'4 1.6
2015-Jan-17 08:22N 30°05' W 090°54'9 0.4
2015-Jan-16 09:33N 30°01' W 090°45'9 8.5
2015-Jan-16 08:28N 30°03' W 090°35'7 7.5
2015-Jan-16 07:30N 29°60' W 090°27'17 7.0
2015-Jan-16 05:07N 29°56' W 090°08'4 7.0
2015-Jan-16 04:30N 29°56' W 090°04'7 6.7
2015-Jan-16 03:26N 29°55' W 089°55'8 0.4
2015-Jan-15 08:28N 29°48' W 090°00'17 8.8
2015-Jan-15 06:29N 29°34' W 089°48'  
Track history (hours):
 
Tides and Currents Weather Stations Pressure Air Temp Water Temp Dewpoint Dewpoint Depression Visibility Wind Speed Wind Dir Waves Ship Positions

Pacific Fantasy

Last reported at 2015-Jan-22 12:33 UTC. Time now 2015-Jan-26 22:33 UTC.
Position N 25°54' W 079°21'.

Length 180 m; draft 6.5 m.

Type: Cargo ship. MMSI: 636013744.

Date/timePositionNaut miles runAvg speedWind from/ knotsBaromVisibWave heightAir tempDewpointWater temp
2015-Jan-22 12:33N 25°54' W 079°21'  
2015-Jan-19 18:11N 29°55' W 090°05'15 9.1
2015-Jan-19 16:30N 29°56' W 090°22'1210.5
2015-Jan-19 15:22N 30°03' W 090°34'1011.7
2015-Jan-19 14:30N 30°01' W 090°45'8 8.6
2015-Jan-19 13:33N 30°04' W 090°54'4 3.8
2015-Jan-19 12:25N 30°07' W 090°57'0 0.0
2015-Jan-19 11:04N 30°07' W 090°57'0 0.0
2015-Jan-19 08:13N 30°07' W 090°57'0 0.0
2015-Jan-19 07:04N 30°07' W 090°57'0 0.0
2015-Jan-19 02:27N 30°07' W 090°57'0 0.0
2015-Jan-17 15:31N 30°07' W 090°57'0 0.0
2015-Jan-17 14:31N 30°07' W 090°57'0 0.0
2015-Jan-17 13:31N 30°07' W 090°57'0 0.0
2015-Jan-17 12:16N 30°07' W 090°57'0 0.0
2015-Jan-17 11:25N 30°07' W 090°57'0 0.1
2015-Jan-17 10:33N 30°08' W 090°57'4 1.6
2015-Jan-17 08:22N 30°05' W 090°54'9 0.4
2015-Jan-16 09:33N 30°01' W 090°45'9 8.5
2015-Jan-16 08:28N 30°03' W 090°35'7 7.5
2015-Jan-16 07:30N 29°60' W 090°27'17 7.0
2015-Jan-16 05:07N 29°56' W 090°08'4 7.0
2015-Jan-16 04:30N 29°56' W 090°04'7 6.7
2015-Jan-16 03:26N 29°55' W 089°55'8 0.4
2015-Jan-15 08:28N 29°48' W 090°00'17 8.8
2015-Jan-15 06:29N 29°34' W 089°48'  

Dump ship's entire track history